createdAt,value
2023-03-29T00:03:12.644Z,54.71
2023-03-29T00:08:22.965Z,54.20
2023-03-29T00:13:30.754Z,53.20
2023-03-29T00:18:38.515Z,53.73
2023-03-29T00:23:48.734Z,54.31
2023-03-29T00:28:56.345Z,54.37
2023-03-29T00:34:03.958Z,54.44
2023-03-29T00:39:14.183Z,53.81
2023-03-29T00:44:51.945Z,53.87
2023-03-29T00:50:04.198Z,54.11
2023-03-29T00:55:18.730Z,54.05
2023-03-29T01:00:34.085Z,54.36
2023-03-29T01:05:44.497Z,54.38
2023-03-29T01:10:59.888Z,54.98
2023-03-29T01:16:10.455Z,55.00
2023-03-29T01:21:24.179Z,56.10
2023-03-29T01:26:43.025Z,56.43
2023-03-29T01:31:57.722Z,56.67
2023-03-29T01:37:11.857Z,56.33
2023-03-29T01:42:32.457Z,56.86
2023-03-29T01:47:49.218Z,56.29
2023-03-29T01:53:02.471Z,56.26
2023-03-29T01:58:12.513Z,55.98
2023-03-29T02:03:26.939Z,55.74
2023-03-29T02:08:34.947Z,55.57
2023-03-29T02:13:42.762Z,55.62
2023-03-29T02:18:54.381Z,56.14
2023-03-29T02:24:07.783Z,55.78
2023-03-29T02:29:15.926Z,55.46
2023-03-29T02:34:30.798Z,55.53
2023-03-29T02:39:39.522Z,55.31
2023-03-29T02:44:48.326Z,55.00
2023-03-29T02:49:58.635Z,55.11
2023-03-29T02:55:11.639Z,54.79
2023-03-29T03:00:23.318Z,54.86
2023-03-29T03:05:33.791Z,54.48
2023-03-29T03:10:41.619Z,54.51
2023-03-29T03:15:49.570Z,54.46
2023-03-29T03:21:04.834Z,54.40
2023-03-29T03:26:12.643Z,54.41
2023-03-29T03:31:21.655Z,54.39
2023-03-29T03:36:31.841Z,54.32
2023-03-29T03:41:39.519Z,54.04
2023-03-29T03:46:47.441Z,54.03
2023-03-29T03:51:57.625Z,54.16
2023-03-29T03:57:05.289Z,53.99
2023-03-29T04:02:13.102Z,54.12
2023-03-29T04:07:25.555Z,53.79
2023-03-29T04:12:33.464Z,53.99
2023-03-29T04:17:41.474Z,53.98
2023-03-29T04:22:51.767Z,54.10
2023-03-29T04:27:59.576Z,53.94
2023-03-29T04:33:07.301Z,54.30
2023-03-29T04:38:17.597Z,54.01
2023-03-29T04:43:25.281Z,53.84
2023-03-29T04:48:33.641Z,53.97
2023-03-29T04:53:43.950Z,53.96
2023-03-29T04:58:53.086Z,53.91
2023-03-29T05:04:01.270Z,54.09
2023-03-29T05:09:11.639Z,53.82
2023-03-29T05:14:19.327Z,53.50
2023-03-29T05:19:28.910Z,53.50
2023-03-29T05:24:39.370Z,53.17
2023-03-29T05:29:48.008Z,53.21
2023-03-29T05:34:55.723Z,53.13
2023-03-29T05:40:10.299Z,53.46
2023-03-29T05:45:18.214Z,53.04
2023-03-29T05:50:28.058Z,53.03
2023-03-29T05:55:38.250Z,52.82
2023-03-29T06:00:45.898Z,52.95
2023-03-29T06:06:01.077Z,52.80
2023-03-29T06:11:13.991Z,52.83
2023-03-29T06:16:22.016Z,52.99
2023-03-29T06:21:30.792Z,52.99
2023-03-29T06:26:41.494Z,52.90
2023-03-29T06:31:50.238Z,53.02
2023-03-29T06:36:57.860Z,53.12
2023-03-29T06:42:20.056Z,52.93
2023-03-29T06:47:31.028Z,52.48
2023-03-29T06:52:39.741Z,52.62
2023-03-29T06:57:50.277Z,52.81
2023-03-29T07:03:01.489Z,52.48
2023-03-29T07:08:15.415Z,52.70
2023-03-29T07:13:27.086Z,52.99
2023-03-29T07:18:34.683Z,52.86
2023-03-29T07:23:43.103Z,53.02
2023-03-29T07:28:54.366Z,53.21
2023-03-29T07:34:03.716Z,52.90
2023-03-29T07:39:13.034Z,52.92
